sensor_id;sensor_type;location;lat;lon;timestamp;temperature;humidity
11091;DHT22;5599;52.210;21.046;2024-02-26T00:00:15;8.20;99.90
11091;DHT22;5599;52.210;21.046;2024-02-26T00:02:44;8.10;99.90
11091;DHT22;5599;52.210;21.046;2024-02-26T00:05:13;8.00;99.90
11091;DHT22;5599;52.210;21.046;2024-02-26T00:07:41;8.00;99.90
11091;DHT22;5599;52.210;21.046;2024-02-26T00:10:13;8.00;1.00
11091;DHT22;5599;52.210;21.046;2024-02-26T00:12:41;8.00;1.00
11091;DHT22;5599;52.210;21.046;2024-02-26T00:15:10;8.00;99.90
11091;DHT22;5599;52.210;21.046;2024-02-26T00:17:39;8.00;99.90
11091;DHT22;5599;52.210;21.046;2024-02-26T00:20:10;7.90;99.90
11091;DHT22;5599;52.210;21.046;2024-02-26T00:22:41;7.80;1.00
11091;DHT22;5599;52.210;21.046;2024-02-26T00:25:09;7.90;1.00
11091;DHT22;5599;52.210;21.046;2024-02-26T00:27:41;7.80;1.00
11091;DHT22;5599;52.210;21.046;2024-02-26T00:30:11;7.80;1.00
11091;DHT22;5599;52.210;21.046;2024-02-26T00:32:40;7.80;1.00
11091;DHT22;5599;52.210;21.046;2024-02-26T00:35:09;7.70;1.00
11091;DHT22;5599;52.210;21.046;2024-02-26T00:37:38;7.70;1.00
11091;DHT22;5599;52.210;21.046;2024-02-26T00:40:08;7.80;1.00
11091;DHT22;5599;52.210;21.046;2024-02-26T00:42:37;7.70;1.00
11091;DHT22;5599;52.210;21.046;2024-02-26T00:45:08;7.80;1.00
11091;DHT22;5599;52.210;21.046;2024-02-26T00:47:37;7.70;1.00
11091;DHT22;5599;52.210;21.046;2024-02-26T00:50:09;7.70;1.00
11091;DHT22;5599;52.210;21.046;2024-02-26T00:52:38;7.70;1.00
11091;DHT22;5599;52.210;21.046;2024-02-26T00:55:07;7.70;1.00
11091;DHT22;5599;52.210;21.046;2024-02-26T00:57:36;7.60;1.00
11091;DHT22;5599;52.210;21.046;2024-02-26T01:00:08;7.50;1.00
11091;DHT22;5599;52.210;21.046;2024-02-26T01:02:37;7.60;1.00
11091;DHT22;5599;52.210;21.046;2024-02-26T01:05:07;7.50;1.00
11091;DHT22;5599;52.210;21.046;2024-02-26T01:07:37;7.50;1.00
11091;DHT22;5599;52.210;21.046;2024-02-26T01:10:07;7.50;1.00
11091;DHT22;5599;52.210;21.046;2024-02-26T01:12:36;7.60;1.00
11091;DHT22;5599;52.210;21.046;2024-02-26T01:15:07;7.50;1.00
11091;DHT22;5599;52.210;21.046;2024-02-26T01:17:37;7.50;1.00
11091;DHT22;5599;52.210;21.046;2024-02-26T01:20:07;7.50;1.00
11091;DHT22;5599;52.210;21.046;2024-02-26T01:22:37;7.50;1.00
11091;DHT22;5599;52.210;21.046;2024-02-26T01:25:08;7.50;1.00
11091;DHT22;5599;52.210;21.046;2024-02-26T01:27:38;7.50;1.00
11091;DHT22;5599;52.210;21.046;2024-02-26T01:30:11;7.50;1.00
11091;DHT22;5599;52.210;21.046;2024-02-26T01:32:40;7.50;1.00
11091;DHT22;5599;52.210;21.046;2024-02-26T01:35:09;7.50;1.00
11091;DHT22;5599;52.210;21.046;2024-02-26T01:37:39;7.50;1.00
11091;DHT22;5599;52.210;21.046;2024-02-26T01:40:10;7.50;1.00
11091;DHT22;5599;52.210;21.046;2024-02-26T01:42:39;7.50;1.00
11091;DHT22;5599;52.210;21.046;2024-02-26T01:45:14;7.50;1.00
11091;DHT22;5599;52.210;21.046;2024-02-26T01:47:50;7.40;1.00
11091;DHT22;5599;52.210;21.046;2024-02-26T01:50:20;7.40;1.00
11091;DHT22;5599;52.210;21.046;2024-02-26T01:52:51;7.40;1.00
11091;DHT22;5599;52.210;21.046;2024-02-26T01:55:23;7.40;1.00
11091;DHT22;5599;52.210;21.046;2024-02-26T01:57:52;7.30;1.00
11091;DHT22;5599;52.210;21.046;2024-02-26T02:00:23;7.30;1.00
11091;DHT22;5599;52.210;21.046;2024-02-26T02:02:53;7.30;1.00
11091;DHT22;5599;52.210;21.046;2024-02-26T02:05:23;7.20;1.00
11091;DHT22;5599;52.210;21.046;2024-02-26T02:07:54;7.20;1.00
11091;DHT22;5599;52.210;21.046;2024-02-26T02:10:23;7.10;1.00
11091;DHT22;5599;52.210;21.046;2024-02-26T02:12:53;7.10;1.00
11091;DHT22;5599;52.210;21.046;2024-02-26T02:15:23;7.00;1.00
11091;DHT22;5599;52.210;21.046;2024-02-26T02:17:52;6.90;1.00
11091;DHT22;5599;52.210;21.046;2024-02-26T02:20:25;6.80;1.00
11091;DHT22;5599;52.210;21.046;2024-02-26T02:22:55;6.80;1.00
11091;DHT22;5599;52.210;21.046;2024-02-26T02:25:23;6.80;1.00
11091;DHT22;5599;52.210;21.046;2024-02-26T02:27:53;6.70;1.00
11091;DHT22;5599;52.210;21.046;2024-02-26T02:30:25;6.60;1.00
11091;DHT22;5599;52.210;21.046;2024-02-26T02:32:55;6.60;1.00
11091;DHT22;5599;52.210;21.046;2024-02-26T02:35:27;6.70;1.00
11091;DHT22;5599;52.210;21.046;2024-02-26T02:37:57;6.60;1.00
11091;DHT22;5599;52.210;21.046;2024-02-26T02:40:26;6.60;1.00
11091;DHT22;5599;52.210;21.046;2024-02-26T02:42:55;6.60;1.00
11091;DHT22;5599;52.210;21.046;2024-02-26T02:45:24;6.60;1.00
11091;DHT22;5599;52.210;21.046;2024-02-26T02:47:53;6.60;1.00
11091;DHT22;5599;52.210;21.046;2024-02-26T02:50:22;6.60;1.00
11091;DHT22;5599;52.210;21.046;2024-02-26T02:52:52;6.60;7.80
11091;DHT22;5599;52.210;21.046;2024-02-26T02:55:21;6.60;14.50
11091;DHT22;5599;52.210;21.046;2024-02-26T02:57:50;6.60;16.50
11091;DHT22;5599;52.210;21.046;2024-02-26T03:00:19;6.60;22.70
11091;DHT22;5599;52.210;21.046;2024-02-26T03:02:50;6.60;17.10
11091;DHT22;5599;52.210;21.046;2024-02-26T03:05:19;6.60;13.80
11091;DHT22;5599;52.210;21.046;2024-02-26T03:07:48;6.60;29.40
11091;DHT22;5599;52.210;21.046;2024-02-26T03:10:18;6.60;57.00
11091;DHT22;5599;52.210;21.046;2024-02-26T03:12:47;6.60;61.40
11091;DHT22;5599;52.210;21.046;2024-02-26T03:15:16;6.50;63.50
11091;DHT22;5599;52.210;21.046;2024-02-26T03:17:45;6.50;81.50
11091;DHT22;5599;52.210;21.046;2024-02-26T03:20:14;6.50;86.40
11091;DHT22;5599;52.210;21.046;2024-02-26T03:22:43;6.50;93.80
11091;DHT22;5599;52.210;21.046;2024-02-26T03:25:12;6.50;89.30
11091;DHT22;5599;52.210;21.046;2024-02-26T03:27:42;6.50;92.10
11091;DHT22;5599;52.210;21.046;2024-02-26T03:30:11;6.50;95.90
11091;DHT22;5599;52.210;21.046;2024-02-26T03:32:40;6.50;99.90
11091;DHT22;5599;52.210;21.046;2024-02-26T03:35:09;6.60;99.90
11091;DHT22;5599;52.210;21.046;2024-02-26T03:37:38;6.50;99.90
11091;DHT22;5599;52.210;21.046;2024-02-26T03:40:08;6.50;99.90
11091;DHT22;5599;52.210;21.046;2024-02-26T03:42:37;6.50;99.90
11091;DHT22;5599;52.210;21.046;2024-02-26T03:45:07;6.50;99.90
11091;DHT22;5599;52.210;21.046;2024-02-26T03:47:38;6.40;99.90
11091;DHT22;5599;52.210;21.046;2024-02-26T03:50:08;6.40;99.90
11091;DHT22;5599;52.210;21.046;2024-02-26T03:52:37;6.40;99.90
11091;DHT22;5599;52.210;21.046;2024-02-26T03:55:06;6.40;99.90
11091;DHT22;5599;52.210;21.046;2024-02-26T03:57:36;6.40;99.90
11091;DHT22;5599;52.210;21.046;2024-02-26T04:00:07;6.30;99.90
11091;DHT22;5599;52.210;21.046;2024-02-26T04:02:39;6.30;99.90
11091;DHT22;5599;52.210;21.046;2024-02-26T04:05:09;6.30;99.90
11091;DHT22;5599;52.210;21.046;2024-02-26T04:07:39;6.30;99.90
11091;DHT22;5599;52.210;21.046;2024-02-26T04:10:11;6.40;99.90
11091;DHT22;5599;52.210;21.046;2024-02-26T04:12:41;6.40;99.90
11091;DHT22;5599;52.210;21.046;2024-02-26T04:15:11;6.30;99.90
11091;DHT22;5599;52.210;21.046;2024-02-26T04:17:40;6.40;99.90
11091;DHT22;5599;52.210;21.046;2024-02-26T04:20:14;6.40;99.90
11091;DHT22;5599;52.210;21.046;2024-02-26T04:22:44;6.40;99.90
11091;DHT22;5599;52.210;21.046;2024-02-26T04:25:13;6.30;99.90
11091;DHT22;5599;52.210;21.046;2024-02-26T04:27:42;6.30;99.90
11091;DHT22;5599;52.210;21.046;2024-02-26T04:30:12;6.40;99.90
11091;DHT22;5599;52.210;21.046;2024-02-26T04:32:41;6.40;99.90
11091;DHT22;5599;52.210;21.046;2024-02-26T04:35:10;6.40;99.90
11091;DHT22;5599;52.210;21.046;2024-02-26T04:37:39;6.40;99.90
11091;DHT22;5599;52.210;21.046;2024-02-26T04:40:08;6.50;99.90
11091;DHT22;5599;52.210;21.046;2024-02-26T04:42:37;6.40;99.90
11091;DHT22;5599;52.210;21.046;2024-02-26T04:45:07;6.40;99.90
11091;DHT22;5599;52.210;21.046;2024-02-26T04:47:37;6.40;99.90
11091;DHT22;5599;52.210;21.046;2024-02-26T04:50:07;6.40;99.90
11091;DHT22;5599;52.210;21.046;2024-02-26T04:52:36;6.30;99.90
11091;DHT22;5599;52.210;21.046;2024-02-26T04:55:06;6.40;99.90
11091;DHT22;5599;52.210;21.046;2024-02-26T04:57:34;6.30;99.90
11091;DHT22;5599;52.210;21.046;2024-02-26T05:00:04;6.30;99.90
11091;DHT22;5599;52.210;21.046;2024-02-26T05:02:33;6.40;99.90
11091;DHT22;5599;52.210;21.046;2024-02-26T05:05:07;6.30;99.90
11091;DHT22;5599;52.210;21.046;2024-02-26T05:07:40;6.30;99.90
11091;DHT22;5599;52.210;21.046;2024-02-26T05:10:10;6.30;99.90
11091;DHT22;5599;52.210;21.046;2024-02-26T05:12:39;6.30;99.90
11091;DHT22;5599;52.210;21.046;2024-02-26T05:15:10;6.30;99.90
11091;DHT22;5599;52.210;21.046;2024-02-26T05:17:43;6.30;99.90
11091;DHT22;5599;52.210;21.046;2024-02-26T05:20:14;6.30;96.70
11091;DHT22;5599;52.210;21.046;2024-02-26T05:22:43;6.30;95.20
11091;DHT22;5599;52.210;21.046;2024-02-26T05:25:12;6.30;82.00
11091;DHT22;5599;52.210;21.046;2024-02-26T05:27:43;6.30;80.20
11091;DHT22;5599;52.210;21.046;2024-02-26T05:30:12;6.30;90.50
11091;DHT22;5599;52.210;21.046;2024-02-26T05:32:41;6.30;85.60
11091;DHT22;5599;52.210;21.046;2024-02-26T05:35:10;6.30;93.10
11091;DHT22;5599;52.210;21.046;2024-02-26T05:37:40;6.30;96.60
11091;DHT22;5599;52.210;21.046;2024-02-26T05:40:10;6.30;99.90
11091;DHT22;5599;52.210;21.046;2024-02-26T05:42:39;6.20;99.90
11091;DHT22;5599;52.210;21.046;2024-02-26T05:45:08;6.30;99.90
11091;DHT22;5599;52.210;21.046;2024-02-26T05:47:37;6.30;99.90
11091;DHT22;5599;52.210;21.046;2024-02-26T05:50:11;6.30;99.90
11091;DHT22;5599;52.210;21.046;2024-02-26T05:52:41;6.30;99.90
11091;DHT22;5599;52.210;21.046;2024-02-26T05:55:10;6.40;99.90
11091;DHT22;5599;52.210;21.046;2024-02-26T05:57:40;6.40;99.90
11091;DHT22;5599;52.210;21.046;2024-02-26T06:00:10;6.30;99.90
11091;DHT22;5599;52.210;21.046;2024-02-26T06:02:42;6.40;99.90
11091;DHT22;5599;52.210;21.046;2024-02-26T06:05:11;6.40;99.90
11091;DHT22;5599;52.210;21.046;2024-02-26T06:07:41;6.40;99.90
11091;DHT22;5599;52.210;21.046;2024-02-26T06:10:10;6.50;99.90
11091;DHT22;5599;52.210;21.046;2024-02-26T06:12:41;6.60;99.90
11091;DHT22;5599;52.210;21.046;2024-02-26T06:15:10;6.70;99.90
11091;DHT22;5599;52.210;21.046;2024-02-26T06:17:39;6.70;99.90
11091;DHT22;5599;52.210;21.046;2024-02-26T06:20:09;6.80;99.90
11091;DHT22;5599;52.210;21.046;2024-02-26T06:22:41;6.90;99.90
11091;DHT22;5599;52.210;21.046;2024-02-26T06:25:10;6.90;99.90
11091;DHT22;5599;52.210;21.046;2024-02-26T06:27:39;6.90;91.60
11091;DHT22;5599;52.210;21.046;2024-02-26T06:30:09;7.00;99.90
11091;DHT22;5599;52.210;21.046;2024-02-26T06:32:38;7.10;99.90
11091;DHT22;5599;52.210;21.046;2024-02-26T06:35:08;7.10;99.90
11091;DHT22;5599;52.210;21.046;2024-02-26T06:37:40;7.20;99.90
11091;DHT22;5599;52.210;21.046;2024-02-26T06:40:09;7.20;99.90
11091;DHT22;5599;52.210;21.046;2024-02-26T06:42:38;7.40;99.90
11091;DHT22;5599;52.210;21.046;2024-02-26T06:45:08;7.50;93.70
11091;DHT22;5599;52.210;21.046;2024-02-26T06:47:37;7.60;82.30
11091;DHT22;5599;52.210;21.046;2024-02-26T06:50:06;7.70;89.20
11091;DHT22;5599;52.210;21.046;2024-02-26T06:52:35;7.90;87.90
11091;DHT22;5599;52.210;21.046;2024-02-26T06:55:06;8.10;61.00
11091;DHT22;5599;52.210;21.046;2024-02-26T06:57:36;8.30;51.30
11091;DHT22;5599;52.210;21.046;2024-02-26T07:00:05;8.60;40.40
11091;DHT22;5599;52.210;21.046;2024-02-26T07:02:35;9.00;23.40
11091;DHT22;5599;52.210;21.046;2024-02-26T07:05:07;9.70;13.60
11091;DHT22;5599;52.210;21.046;2024-02-26T07:07:36;10.00;1.00
11091;DHT22;5599;52.210;21.046;2024-02-26T07:10:07;10.40;99.90
11091;DHT22;5599;52.210;21.046;2024-02-26T07:12:36;10.90;1.00
11091;DHT22;5599;52.210;21.046;2024-02-26T07:15:06;11.40;99.90
11091;DHT22;5599;52.210;21.046;2024-02-26T07:17:35;11.80;1.00
11091;DHT22;5599;52.210;21.046;2024-02-26T07:20:05;12.10;99.90
11091;DHT22;5599;52.210;21.046;2024-02-26T07:22:37;12.40;99.90
11091;DHT22;5599;52.210;21.046;2024-02-26T07:25:07;12.60;1.00
11091;DHT22;5599;52.210;21.046;2024-02-26T07:27:39;13.00;1.00
11091;DHT22;5599;52.210;21.046;2024-02-26T07:30:09;13.40;99.90
11091;DHT22;5599;52.210;21.046;2024-02-26T07:32:39;13.80;99.90
11091;DHT22;5599;52.210;21.046;2024-02-26T07:35:08;13.90;1.00
11091;DHT22;5599;52.210;21.046;2024-02-26T07:37:37;14.00;99.90
11091;DHT22;5599;52.210;21.046;2024-02-26T07:40:10;14.20;1.00
11091;DHT22;5599;52.210;21.046;2024-02-26T07:42:39;14.40;50.30
11091;DHT22;5599;52.210;21.046;2024-02-26T07:45:08;14.70;1.00
11091;DHT22;5599;52.210;21.046;2024-02-26T07:47:37;15.10;1.00
11091;DHT22;5599;52.210;21.046;2024-02-26T07:50:08;15.40;99.90
11091;DHT22;5599;52.210;21.046;2024-02-26T07:52:39;15.80;1.00
11091;DHT22;5599;52.210;21.046;2024-02-26T07:55:10;16.20;1.00
11091;DHT22;5599;52.210;21.046;2024-02-26T07:57:42;16.40;1.00
11091;DHT22;5599;52.210;21.046;2024-02-26T08:00:12;16.60;48.10
11091;DHT22;5599;52.210;21.046;2024-02-26T08:02:44;16.70;1.00
11091;DHT22;5599;52.210;21.046;2024-02-26T08:05:14;17.00;1.00
11091;DHT22;5599;52.210;21.046;2024-02-26T08:07:43;17.20;99.90
11091;DHT22;5599;52.210;21.046;2024-02-26T08:10:14;17.40;69.40
11091;DHT22;5599;52.210;21.046;2024-02-26T08:12:43;17.30;99.90
11091;DHT22;5599;52.210;21.046;2024-02-26T08:15:12;17.40;1.00
11091;DHT22;5599;52.210;21.046;2024-02-26T08:17:41;17.50;99.90
11091;DHT22;5599;52.210;21.046;2024-02-26T08:20:11;17.60;99.90
11091;DHT22;5599;52.210;21.046;2024-02-26T08:22:40;17.70;99.90
11091;DHT22;5599;52.210;21.046;2024-02-26T08:25:10;18.00;99.90
11091;DHT22;5599;52.210;21.046;2024-02-26T08:27:40;18.30;99.90
11091;DHT22;5599;52.210;21.046;2024-02-26T08:30:10;17.70;17.80
11091;DHT22;5599;52.210;21.046;2024-02-26T08:32:41;17.60;1.00
11091;DHT22;5599;52.210;21.046;2024-02-26T08:35:10;17.70;1.00
11091;DHT22;5599;52.210;21.046;2024-02-26T08:37:39;17.40;1.00
11091;DHT22;5599;52.210;21.046;2024-02-26T08:40:08;17.30;30.50
11091;DHT22;5599;52.210;21.046;2024-02-26T08:42:40;17.70;1.00
11091;DHT22;5599;52.210;21.046;2024-02-26T08:45:09;18.10;1.00
11091;DHT22;5599;52.210;21.046;2024-02-26T08:47:38;18.00;99.90
11091;DHT22;5599;52.210;21.046;2024-02-26T08:50:09;18.10;1.00
11091;DHT22;5599;52.210;21.046;2024-02-26T08:52:39;18.10;99.90
11091;DHT22;5599;52.210;21.046;2024-02-26T08:55:09;18.50;99.90
11091;DHT22;5599;52.210;21.046;2024-02-26T08:57:37;18.80;99.90
11091;DHT22;5599;52.210;21.046;2024-02-26T09:00:09;19.10;99.90
11091;DHT22;5599;52.210;21.046;2024-02-26T09:02:38;19.40;1.00
11091;DHT22;5599;52.210;21.046;2024-02-26T09:05:07;19.10;99.90
11091;DHT22;5599;52.210;21.046;2024-02-26T09:07:36;19.00;99.90
11091;DHT22;5599;52.210;21.046;2024-02-26T09:10:06;19.20;99.90
11091;DHT22;5599;52.210;21.046;2024-02-26T09:12:38;18.70;99.90
11091;DHT22;5599;52.210;21.046;2024-02-26T09:15:09;17.90;1.00
11091;DHT22;5599;52.210;21.046;2024-02-26T09:17:38;17.60;1.00
11091;DHT22;5599;52.210;21.046;2024-02-26T09:20:08;17.30;1.00
11091;DHT22;5599;52.210;21.046;2024-02-26T09:22:37;17.20;1.00
11091;DHT22;5599;52.210;21.046;2024-02-26T09:25:07;17.00;23.50
11091;DHT22;5599;52.210;21.046;2024-02-26T09:27:36;16.60;99.90
11091;DHT22;5599;52.210;21.046;2024-02-26T09:30:12;16.20;99.90
11091;DHT22;5599;52.210;21.046;2024-02-26T09:32:41;15.90;99.90
11091;DHT22;5599;52.210;21.046;2024-02-26T09:35:14;15.00;1.00
11091;DHT22;5599;52.210;21.046;2024-02-26T09:37:43;14.80;1.00
11091;DHT22;5599;52.210;21.046;2024-02-26T09:40:12;14.50;1.00
11091;DHT22;5599;52.210;21.046;2024-02-26T09:42:43;14.40;80.90
11091;DHT22;5599;52.210;21.046;2024-02-26T09:45:18;14.20;1.00
11091;DHT22;5599;52.210;21.046;2024-02-26T09:47:48;13.90;99.90
11091;DHT22;5599;52.210;21.046;2024-02-26T09:50:18;13.80;1.00
11091;DHT22;5599;52.210;21.046;2024-02-26T09:52:51;14.00;1.00
11091;DHT22;5599;52.210;21.046;2024-02-26T09:55:21;14.00;99.90
11091;DHT22;5599;52.210;21.046;2024-02-26T09:57:51;13.60;99.90
11091;DHT22;5599;52.210;21.046;2024-02-26T10:00:22;13.40;3.20
11091;DHT22;5599;52.210;21.046;2024-02-26T10:02:51;13.10;99.90
11091;DHT22;5599;52.210;21.046;2024-02-26T10:05:21;13.00;3.20
11091;DHT22;5599;52.210;21.046;2024-02-26T10:07:51;13.20;1.00
11091;DHT22;5599;52.210;21.046;2024-02-26T10:10:21;13.00;1.00
11091;DHT22;5599;52.210;21.046;2024-02-26T10:12:50;12.90;99.90
11091;DHT22;5599;52.210;21.046;2024-02-26T10:15:20;12.70;99.90
11091;DHT22;5599;52.210;21.046;2024-02-26T10:17:50;12.70;96.10
11091;DHT22;5599;52.210;21.046;2024-02-26T10:20:20;12.40;1.00
11091;DHT22;5599;52.210;21.046;2024-02-26T10:22:49;12.50;1.00
11091;DHT22;5599;52.210;21.046;2024-02-26T10:25:20;12.10;99.90
11091;DHT22;5599;52.210;21.046;2024-02-26T10:27:49;12.10;1.00
11091;DHT22;5599;52.210;21.046;2024-02-26T10:30:19;12.10;1.00
11091;DHT22;5599;52.210;21.046;2024-02-26T10:32:50;12.10;99.90
11091;DHT22;5599;52.210;21.046;2024-02-26T10:35:19;11.90;1.00
11091;DHT22;5599;52.210;21.046;2024-02-26T10:37:49;11.90;1.00
11091;DHT22;5599;52.210;21.046;2024-02-26T10:40:18;12.00;1.00
11091;DHT22;5599;52.210;21.046;2024-02-26T10:42:47;12.20;1.00
11091;DHT22;5599;52.210;21.046;2024-02-26T10:45:16;12.10;1.00
11091;DHT22;5599;52.210;21.046;2024-02-26T10:47:46;12.10;1.00
11091;DHT22;5599;52.210;21.046;2024-02-26T10:50:17;12.00;1.00
11091;DHT22;5599;52.210;21.046;2024-02-26T10:52:46;11.90;72.80
11091;DHT22;5599;52.210;21.046;2024-02-26T10:55:16;12.00;99.90
11091;DHT22;5599;52.210;21.046;2024-02-26T10:57:48;12.10;1.00
11091;DHT22;5599;52.210;21.046;2024-02-26T11:00:20;12.40;99.90
11091;DHT22;5599;52.210;21.046;2024-02-26T11:02:51;12.60;78.70
11091;DHT22;5599;52.210;21.046;2024-02-26T11:05:23;12.70;99.90
11091;DHT22;5599;52.210;21.046;2024-02-26T11:07:52;12.80;1.00
11091;DHT22;5599;52.210;21.046;2024-02-26T11:10:23;12.60;99.90
11091;DHT22;5599;52.210;21.046;2024-02-26T11:12:54;12.70;99.90
11091;DHT22;5599;52.210;21.046;2024-02-26T11:15:24;12.80;99.90
11091;DHT22;5599;52.210;21.046;2024-02-26T11:17:55;13.10;99.90
11091;DHT22;5599;52.210;21.046;2024-02-26T11:20:28;13.30;1.00
11091;DHT22;5599;52.210;21.046;2024-02-26T11:22:58;13.60;1.00
11091;DHT22;5599;52.210;21.046;2024-02-26T11:25:27;13.70;23.30
11091;DHT22;5599;52.210;21.046;2024-02-26T11:28:00;13.90;99.90
11091;DHT22;5599;52.210;21.046;2024-02-26T11:30:32;14.10;1.00
11091;DHT22;5599;52.210;21.046;2024-02-26T11:33:02;14.20;99.90
11091;DHT22;5599;52.210;21.046;2024-02-26T11:35:34;14.20;99.90
11091;DHT22;5599;52.210;21.046;2024-02-26T11:38:03;14.30;1.00
11091;DHT22;5599;52.210;21.046;2024-02-26T11:40:38;14.20;99.90
11091;DHT22;5599;52.210;21.046;2024-02-26T11:43:08;14.50;1.00
11091;DHT22;5599;52.210;21.046;2024-02-26T11:45:50;14.80;99.90
11091;DHT22;5599;52.210;21.046;2024-02-26T11:48:21;15.20;99.90
11091;DHT22;5599;52.210;21.046;2024-02-26T11:50:53;15.30;1.00
11091;DHT22;5599;52.210;21.046;2024-02-26T11:53:24;15.60;1.00
11091;DHT22;5599;52.210;21.046;2024-02-26T11:56:12;15.90;99.90
11091;DHT22;5599;52.210;21.046;2024-02-26T11:58:41;15.70;99.90
11091;DHT22;5599;52.210;21.046;2024-02-26T12:01:38;15.00;99.90
11091;DHT22;5599;52.210;21.046;2024-02-26T12:04:11;15.00;1.00
11091;DHT22;5599;52.210;21.046;2024-02-26T12:06:53;14.90;1.00
11091;DHT22;5599;52.210;21.046;2024-02-26T12:09:41;15.00;1.00
11091;DHT22;5599;52.210;21.046;2024-02-26T12:12:17;15.00;1.00
11091;DHT22;5599;52.210;21.046;2024-02-26T12:14:51;14.80;1.00
11091;DHT22;5599;52.210;21.046;2024-02-26T12:17:22;14.60;1.00
11091;DHT22;5599;52.210;21.046;2024-02-26T12:19:52;14.30;99.90
11091;DHT22;5599;52.210;21.046;2024-02-26T12:22:23;14.40;99.90
11091;DHT22;5599;52.210;21.046;2024-02-26T12:24:58;14.60;99.90
11091;DHT22;5599;52.210;21.046;2024-02-26T12:27:28;14.80;87.40
11091;DHT22;5599;52.210;21.046;2024-02-26T12:29:57;14.50;99.90
11091;DHT22;5599;52.210;21.046;2024-02-26T12:32:26;14.80;20.10
11091;DHT22;5599;52.210;21.046;2024-02-26T12:34:58;15.10;1.00
11091;DHT22;5599;52.210;21.046;2024-02-26T12:37:29;15.30;1.00
11091;DHT22;5599;52.210;21.046;2024-02-26T12:39:58;15.10;99.90
11091;DHT22;5599;52.210;21.046;2024-02-26T12:42:27;15.10;99.90
11091;DHT22;5599;52.210;21.046;2024-02-26T12:44:56;15.10;99.90
11091;DHT22;5599;52.210;21.046;2024-02-26T12:47:25;15.10;99.90
11091;DHT22;5599;52.210;21.046;2024-02-26T12:49:54;15.10;99.90
11091;DHT22;5599;52.210;21.046;2024-02-26T12:52:23;15.00;98.60
11091;DHT22;5599;52.210;21.046;2024-02-26T12:54:53;15.10;99.90
11091;DHT22;5599;52.210;21.046;2024-02-26T12:57:22;15.20;15.10
11091;DHT22;5599;52.210;21.046;2024-02-26T12:59:52;15.00;99.90
11091;DHT22;5599;52.210;21.046;2024-02-26T13:02:21;15.10;56.10
11091;DHT22;5599;52.210;21.046;2024-02-26T13:04:50;15.10;99.90
11091;DHT22;5599;52.210;21.046;2024-02-26T13:07:20;15.10;1.00
11091;DHT22;5599;52.210;21.046;2024-02-26T13:09:49;15.20;1.00
11091;DHT22;5599;52.210;21.046;2024-02-26T13:12:20;15.10;1.00
11091;DHT22;5599;52.210;21.046;2024-02-26T13:14:58;15.10;1.00
11091;DHT22;5599;52.210;21.046;2024-02-26T13:17:31;15.20;1.00
11091;DHT22;5599;52.210;21.046;2024-02-26T13:20:00;15.30;1.00
11091;DHT22;5599;52.210;21.046;2024-02-26T13:22:31;15.50;1.00
11091;DHT22;5599;52.210;21.046;2024-02-26T13:25:00;15.50;1.00
11091;DHT22;5599;52.210;21.046;2024-02-26T13:27:32;15.50;1.00
11091;DHT22;5599;52.210;21.046;2024-02-26T13:30:08;15.50;1.00
11091;DHT22;5599;52.210;21.046;2024-02-26T13:32:39;15.60;1.00
11091;DHT22;5599;52.210;21.046;2024-02-26T13:35:09;15.70;1.00
11091;DHT22;5599;52.210;21.046;2024-02-26T13:37:39;15.80;1.00
11091;DHT22;5599;52.210;21.046;2024-02-26T13:40:09;15.70;1.00
11091;DHT22;5599;52.210;21.046;2024-02-26T13:42:40;15.50;1.00
11091;DHT22;5599;52.210;21.046;2024-02-26T13:45:09;15.40;1.00
11091;DHT22;5599;52.210;21.046;2024-02-26T13:47:38;15.40;1.00
11091;DHT22;5599;52.210;21.046;2024-02-26T13:50:08;15.60;1.00
11091;DHT22;5599;52.210;21.046;2024-02-26T13:52:37;15.70;1.00
11091;DHT22;5599;52.210;21.046;2024-02-26T13:55:06;15.70;1.00
11091;DHT22;5599;52.210;21.046;2024-02-26T13:57:36;15.60;1.00
11091;DHT22;5599;52.210;21.046;2024-02-26T14:00:08;15.70;1.00
11091;DHT22;5599;52.210;21.046;2024-02-26T14:02:40;15.70;1.00
11091;DHT22;5599;52.210;21.046;2024-02-26T14:05:09;15.80;1.00
11091;DHT22;5599;52.210;21.046;2024-02-26T14:07:38;15.80;1.00
11091;DHT22;5599;52.210;21.046;2024-02-26T14:10:08;15.90;1.00
11091;DHT22;5599;52.210;21.046;2024-02-26T14:12:39;15.70;1.00
11091;DHT22;5599;52.210;21.046;2024-02-26T14:15:10;15.50;1.00
11091;DHT22;5599;52.210;21.046;2024-02-26T14:17:39;15.60;1.00
11091;DHT22;5599;52.210;21.046;2024-02-26T14:20:09;15.70;1.00
11091;DHT22;5599;52.210;21.046;2024-02-26T14:22:38;15.70;1.00
11091;DHT22;5599;52.210;21.046;2024-02-26T14:25:07;15.70;1.00
11091;DHT22;5599;52.210;21.046;2024-02-26T14:27:38;15.80;1.00
11091;DHT22;5599;52.210;21.046;2024-02-26T14:30:09;15.80;1.00
11091;DHT22;5599;52.210;21.046;2024-02-26T14:32:38;15.90;1.00
11091;DHT22;5599;52.210;21.046;2024-02-26T14:35:08;15.90;1.00
11091;DHT22;5599;52.210;21.046;2024-02-26T14:37:43;15.80;1.00
11091;DHT22;5599;52.210;21.046;2024-02-26T14:40:15;15.60;1.00
11091;DHT22;5599;52.210;21.046;2024-02-26T14:42:44;15.50;1.00
11091;DHT22;5599;52.210;21.046;2024-02-26T14:45:15;15.50;1.00
11091;DHT22;5599;52.210;21.046;2024-02-26T14:47:45;15.40;1.00
11091;DHT22;5599;52.210;21.046;2024-02-26T14:50:14;15.40;1.00
11091;DHT22;5599;52.210;21.046;2024-02-26T14:52:43;15.40;1.00
11091;DHT22;5599;52.210;21.046;2024-02-26T14:55:12;15.30;1.00
11091;DHT22;5599;52.210;21.046;2024-02-26T14:57:41;15.30;1.00
11091;DHT22;5599;52.210;21.046;2024-02-26T15:00:10;15.40;1.00
11091;DHT22;5599;52.210;21.046;2024-02-26T15:02:41;15.30;1.00
11091;DHT22;5599;52.210;21.046;2024-02-26T15:05:10;15.20;1.00
11091;DHT22;5599;52.210;21.046;2024-02-26T15:07:39;15.00;1.00
11091;DHT22;5599;52.210;21.046;2024-02-26T15:10:09;14.90;1.00
11091;DHT22;5599;52.210;21.046;2024-02-26T15:12:38;14.80;1.00
11091;DHT22;5599;52.210;21.046;2024-02-26T15:15:08;14.80;99.90
11091;DHT22;5599;52.210;21.046;2024-02-26T15:17:37;14.60;99.90
11091;DHT22;5599;52.210;21.046;2024-02-26T15:20:09;14.60;99.90
11091;DHT22;5599;52.210;21.046;2024-02-26T15:22:39;14.50;99.90
11091;DHT22;5599;52.210;21.046;2024-02-26T15:25:08;14.50;1.00
11091;DHT22;5599;52.210;21.046;2024-02-26T15:27:41;14.50;1.00
11091;DHT22;5599;52.210;21.046;2024-02-26T15:30:11;14.50;1.00
11091;DHT22;5599;52.210;21.046;2024-02-26T15:32:40;14.60;1.00
11091;DHT22;5599;52.210;21.046;2024-02-26T15:35:12;14.50;1.00
11091;DHT22;5599;52.210;21.046;2024-02-26T15:37:41;14.40;1.00
11091;DHT22;5599;52.210;21.046;2024-02-26T15:40:10;14.30;1.00
11091;DHT22;5599;52.210;21.046;2024-02-26T15:42:39;14.00;99.90
11091;DHT22;5599;52.210;21.046;2024-02-26T15:45:09;13.90;1.00
11091;DHT22;5599;52.210;21.046;2024-02-26T15:47:38;13.90;1.00
11091;DHT22;5599;52.210;21.046;2024-02-26T15:50:08;13.90;3.30
11091;DHT22;5599;52.210;21.046;2024-02-26T15:52:39;13.90;1.00
11091;DHT22;5599;52.210;21.046;2024-02-26T15:55:11;13.90;1.00
11091;DHT22;5599;52.210;21.046;2024-02-26T15:57:44;13.80;99.90
11091;DHT22;5599;52.210;21.046;2024-02-26T16:00:14;13.80;99.90
11091;DHT22;5599;52.210;21.046;2024-02-26T16:02:47;13.80;99.90